createdAt,value
2022-07-28T00:02:14.146Z,16.50
2022-07-28T00:05:01.362Z,16.49
2022-07-28T00:07:48.872Z,16.52
2022-07-28T00:10:36.344Z,16.55
2022-07-28T00:13:23.698Z,16.53
2022-07-28T00:16:11.502Z,16.49
2022-07-28T00:18:59.145Z,16.39
2022-07-28T00:21:46.586Z,16.30
2022-07-28T00:24:33.992Z,16.25
2022-07-28T00:27:21.497Z,16.18
2022-07-28T00:30:10.476Z,16.08
2022-07-28T00:32:57.697Z,16.02
2022-07-28T00:35:48.496Z,15.95
2022-07-28T00:38:35.218Z,15.91
2022-07-28T00:41:23.304Z,15.90
2022-07-28T00:44:11.304Z,15.95
2022-07-28T00:46:59.030Z,16.01
2022-07-28T00:49:48.385Z,16.07
2022-07-28T00:52:35.595Z,16.07
2022-07-28T00:55:24.123Z,16.05
2022-07-28T00:58:11.664Z,16.00
2022-07-28T01:00:59.073Z,15.95
2022-07-28T01:03:52.169Z,15.94
2022-07-28T01:06:54.545Z,15.88
2022-07-28T01:10:06.121Z,15.87
2022-07-28T01:16:03.252Z,16.01
2022-07-28T01:19:12.032Z,16.04
2022-07-28T01:22:00.668Z,16.14
2022-07-28T01:25:27.842Z,16.19
2022-07-28T01:28:37.705Z,16.22
2022-07-28T01:31:27.138Z,16.22
2022-07-28T01:34:23.567Z,16.20
2022-07-28T01:37:16.937Z,16.13
2022-07-28T01:40:06.481Z,16.03
2022-07-28T01:42:56.458Z,15.94
2022-07-28T01:45:44.345Z,15.92
2022-07-28T01:48:32.718Z,15.92
2022-07-28T01:51:20.897Z,15.87
2022-07-28T01:54:09.288Z,15.81
2022-07-28T01:56:57.537Z,15.76
2022-07-28T01:59:45.698Z,15.69
2022-07-28T02:02:33.387Z,15.62
2022-07-28T02:05:22.266Z,15.56
2022-07-28T02:08:10.721Z,15.48
2022-07-28T02:11:16.275Z,15.38
2022-07-28T02:14:04.745Z,15.32
2022-07-28T02:17:01.780Z,15.24
2022-07-28T02:19:50.487Z,15.21
2022-07-28T02:22:40.098Z,15.26
2022-07-28T02:25:27.410Z,15.37
2022-07-28T02:28:14.977Z,15.50
2022-07-28T02:31:05.800Z,15.60
2022-07-28T02:34:02.311Z,15.59
2022-07-28T02:36:51.138Z,15.58
2022-07-28T02:39:39.255Z,15.54
2022-07-28T02:42:29.398Z,15.57
2022-07-28T02:45:18.088Z,15.63
2022-07-28T02:48:08.511Z,15.65
2022-07-28T02:50:57.818Z,15.67
2022-07-28T02:53:45.683Z,15.71
2022-07-28T02:56:32.994Z,15.71
2022-07-28T02:59:21.486Z,15.70
2022-07-28T03:02:09.849Z,15.71
2022-07-28T03:04:58.783Z,15.73
2022-07-28T03:07:51.234Z,15.70
2022-07-28T03:10:38.638Z,15.64
2022-07-28T03:13:25.843Z,15.63
2022-07-28T03:16:14.270Z,15.64
2022-07-28T03:19:01.721Z,15.64
2022-07-28T03:21:49.776Z,15.69
2022-07-28T03:24:43.530Z,15.72
2022-07-28T03:27:36.177Z,15.78
2022-07-28T03:30:29.139Z,15.85
2022-07-28T03:33:16.933Z,15.93
2022-07-28T03:36:07.347Z,15.94
2022-07-28T03:39:00.215Z,15.92
2022-07-28T03:41:47.876Z,15.92
2022-07-28T03:44:35.568Z,15.97
2022-07-28T03:47:24.473Z,16.04
2022-07-28T03:50:12.088Z,16.11
2022-07-28T03:53:00.250Z,16.12
2022-07-28T03:55:49.288Z,16.16
2022-07-28T03:58:37.065Z,16.21
2022-07-28T04:01:24.272Z,16.27
2022-07-28T04:04:12.473Z,16.29
2022-07-28T04:07:00.020Z,16.22
2022-07-28T04:09:47.553Z,16.18
2022-07-28T04:12:56.304Z,16.12
2022-07-28T04:15:43.889Z,16.04
2022-07-28T04:18:31.062Z,15.95
2022-07-28T04:21:18.762Z,15.93
2022-07-28T04:24:07.513Z,15.94
2022-07-28T04:26:54.816Z,15.97
2022-07-28T04:29:42.353Z,16.03
2022-07-28T04:32:29.529Z,16.08
2022-07-28T04:35:18.187Z,16.02
2022-07-28T04:38:06.226Z,16.01
2022-07-28T04:40:53.601Z,16.01
2022-07-28T04:43:41.420Z,16.08
2022-07-28T04:46:29.475Z,16.10
2022-07-28T04:49:16.959Z,16.14
2022-07-28T04:52:04.217Z,16.23
2022-07-28T04:54:52.084Z,16.30
2022-07-28T04:57:40.153Z,16.37
2022-07-28T05:00:27.817Z,16.51
2022-07-28T05:03:15.649Z,16.63
2022-07-28T05:06:03.577Z,16.69
2022-07-28T05:08:51.113Z,16.77
2022-07-28T05:11:38.601Z,16.89
2022-07-28T05:14:26.069Z,17.12
2022-07-28T05:17:13.633Z,17.28
2022-07-28T05:20:02.593Z,17.44
2022-07-28T05:22:54.729Z,17.53
2022-07-28T05:25:42.017Z,17.63
2022-07-28T05:28:29.505Z,17.75
2022-07-28T05:31:16.911Z,17.81
2022-07-28T05:34:06.152Z,17.82
2022-07-28T05:36:53.681Z,17.69
2022-07-28T05:39:40.873Z,17.62
2022-07-28T05:42:28.944Z,17.56
2022-07-28T05:45:17.791Z,17.54
2022-07-28T05:48:05.813Z,17.48
2022-07-28T05:50:54.754Z,17.44
2022-07-28T05:53:42.153Z,17.40
2022-07-28T05:56:29.954Z,17.40
2022-07-28T05:59:17.545Z,17.42
2022-07-28T06:02:04.700Z,17.45
2022-07-28T06:04:52.362Z,17.52
2022-07-28T06:07:43.006Z,17.63
2022-07-28T06:10:31.185Z,17.68
2022-07-28T06:13:19.353Z,17.74
2022-07-28T06:16:13.032Z,17.75
2022-07-28T06:18:56.818Z,17.75
2022-07-28T06:21:44.089Z,17.80
2022-07-28T06:24:31.341Z,17.96
2022-07-28T06:27:18.768Z,18.16
2022-07-28T06:30:07.020Z,18.21
2022-07-28T06:32:55.376Z,18.18
2022-07-28T06:35:46.684Z,18.14
2022-07-28T06:38:33.030Z,18.16
2022-07-28T06:41:20.476Z,18.18
2022-07-28T06:44:08.802Z,18.22
2022-07-28T06:46:58.495Z,18.31
2022-07-28T06:49:46.058Z,18.37
2022-07-28T06:52:34.105Z,18.45
2022-07-28T06:55:21.793Z,18.57
2022-07-28T06:58:09.971Z,18.71
2022-07-28T07:00:57.417Z,18.86
2022-07-28T07:03:45.383Z,18.98
2022-07-28T07:06:32.657Z,19.08
2022-07-28T07:09:20.038Z,19.21
2022-07-28T07:12:07.345Z,19.32
2022-07-28T07:14:55.337Z,19.38
2022-07-28T07:17:42.751Z,19.49
2022-07-28T07:20:29.884Z,19.56
2022-07-28T07:23:17.363Z,19.67
2022-07-28T07:26:05.121Z,19.80
2022-07-28T07:28:52.468Z,19.96
2022-07-28T07:31:41.037Z,20.20
2022-07-28T07:34:28.594Z,20.50
2022-07-28T07:37:17.577Z,20.63
2022-07-28T07:40:06.909Z,20.76
2022-07-28T07:42:54.393Z,20.90
2022-07-28T07:45:42.755Z,20.99
2022-07-28T07:48:30.385Z,21.30
2022-07-28T07:51:18.034Z,21.75
2022-07-28T07:54:05.234Z,22.22
2022-07-28T07:56:52.667Z,22.56
2022-07-28T07:59:41.098Z,22.76
2022-07-28T08:02:29.209Z,22.84
2022-07-28T08:05:17.673Z,22.88
2022-07-28T08:08:06.753Z,22.91
2022-07-28T08:10:54.493Z,22.97
2022-07-28T08:13:41.913Z,22.84
2022-07-28T08:16:29.110Z,22.76
2022-07-28T08:19:16.864Z,22.66
2022-07-28T08:22:06.226Z,22.54
2022-07-28T08:24:53.824Z,22.55
2022-07-28T08:27:41.784Z,22.41
2022-07-28T08:30:32.711Z,22.41
2022-07-28T08:33:20.586Z,22.49
2022-07-28T08:36:08.272Z,22.48
2022-07-28T08:38:55.499Z,22.37
2022-07-28T08:41:51.905Z,22.39
2022-07-28T08:44:57.966Z,22.44
2022-07-28T08:48:07.260Z,22.47
2022-07-28T08:50:36.211Z,22.45
2022-07-28T08:53:23.928Z,22.58
2022-07-28T08:58:59.150Z,22.86
2022-07-28T09:01:46.830Z,22.75
2022-07-28T09:04:36.552Z,22.85
2022-07-28T09:07:25.506Z,23.31
2022-07-28T09:10:13.481Z,23.65
2022-07-28T09:13:00.833Z,23.90
2022-07-28T09:15:48.801Z,24.20
2022-07-28T09:23:46.558Z,24.41
2022-07-28T09:26:34.272Z,24.46
2022-07-28T09:29:25.281Z,24.56
2022-07-28T09:32:15.121Z,24.69
2022-07-28T09:35:02.564Z,24.77
2022-07-28T09:37:53.352Z,24.69
2022-07-28T09:40:40.828Z,24.45
2022-07-28T09:43:39.311Z,24.37
2022-07-28T09:46:29.357Z,24.30
2022-07-28T09:49:17.612Z,24.05
2022-07-28T09:52:06.082Z,24.10
2022-07-28T09:55:12.181Z,24.20
2022-07-28T09:57:59.737Z,23.94
2022-07-28T10:00:48.716Z,23.97
2022-07-28T10:03:37.931Z,24.18
2022-07-28T10:06:33.008Z,24.53
2022-07-28T10:09:23.481Z,24.95
2022-07-28T10:12:17.281Z,25.23
2022-07-28T10:15:34.620Z,25.48
2022-07-28T10:18:22.208Z,25.69
2022-07-28T10:21:11.699Z,25.98
2022-07-28T10:24:01.506Z,26.18
2022-07-28T10:26:49.755Z,26.37
2022-07-28T10:29:37.690Z,26.27
2022-07-28T10:32:29.716Z,26.17
2022-07-28T10:35:16.914Z,26.08
2022-07-28T10:38:06.896Z,25.88
2022-07-28T10:40:55.685Z,25.66
2022-07-28T10:43:45.466Z,25.18
2022-07-28T10:46:33.176Z,25.37
2022-07-28T10:49:20.706Z,25.41
2022-07-28T10:52:30.463Z,25.36
2022-07-28T10:55:20.417Z,25.61
2022-07-28T10:58:13.944Z,26.01
2022-07-28T11:01:06.066Z,26.56
2022-07-28T11:03:50.487Z,26.79
2022-07-28T11:06:43.991Z,26.72
2022-07-28T11:09:31.561Z,26.59
2022-07-28T11:12:22.257Z,26.30
2022-07-28T11:15:32.690Z,25.71
2022-07-28T11:18:20.217Z,25.14
2022-07-28T11:21:08.100Z,25.16
2022-07-28T11:23:57.624Z,25.56
2022-07-28T11:26:46.424Z,26.04
2022-07-28T11:29:36.914Z,26.12
2022-07-28T11:32:27.138Z,26.27
2022-07-28T11:35:13.274Z,26.36
2022-07-28T11:38:06.519Z,26.67
2022-07-28T11:40:57.420Z,26.86
2022-07-28T11:43:44.988Z,26.99
2022-07-28T11:46:32.794Z,27.01
2022-07-28T11:49:22.859Z,26.97
2022-07-28T11:52:12.128Z,27.05
2022-07-28T11:55:00.203Z,26.92
2022-07-28T11:57:53.540Z,26.74
2022-07-28T12:00:37.280Z,26.50
2022-07-28T12:03:38.477Z,26.94
2022-07-28T12:06:29.339Z,27.39
2022-07-28T12:09:14.993Z,27.44
2022-07-28T12:12:02.443Z,27.68
2022-07-28T12:14:50.321Z,27.88
2022-07-28T12:17:38.096Z,27.72
2022-07-28T12:20:29.489Z,27.09
2022-07-28T12:23:16.988Z,26.91
2022-07-28T12:26:06.209Z,27.27
2022-07-28T12:28:56.916Z,27.69
2022-07-28T12:31:56.489Z,27.61
2022-07-28T12:34:44.728Z,27.69
2022-07-28T12:37:32.277Z,27.72
2022-07-28T12:40:27.536Z,27.63
2022-07-28T12:43:09.761Z,27.58
2022-07-28T12:45:57.539Z,27.41
2022-07-28T12:48:45.717Z,27.31
2022-07-28T12:51:41.552Z,27.79
2022-07-28T12:54:38.691Z,28.35
2022-07-28T13:00:34.416Z,29.27
2022-07-28T13:03:29.740Z,29.27
2022-07-28T13:06:17.484Z,29.44
2022-07-28T13:09:05.713Z,29.75
2022-07-28T13:11:54.858Z,30.18
2022-07-28T13:14:44.465Z,29.88
2022-07-28T13:17:37.802Z,29.28
2022-07-28T13:20:25.701Z,29.13
2022-07-28T13:23:13.385Z,28.30
2022-07-28T13:26:00.900Z,27.74
2022-07-28T13:28:48.483Z,27.30
2022-07-28T13:31:36.817Z,27.12
2022-07-28T13:34:24.313Z,27.58
2022-07-28T13:37:15.121Z,27.99
2022-07-28T13:40:02.600Z,28.05
2022-07-28T13:42:52.455Z,29.20
2022-07-28T13:45:38.692Z,29.79
2022-07-28T13:48:27.578Z,30.72
2022-07-28T13:51:15.354Z,30.72
2022-07-28T13:54:02.898Z,31.48
2022-07-28T13:57:08.833Z,32.23
2022-07-28T13:59:57.680Z,32.79
2022-07-28T14:02:45.920Z,33.24
2022-07-28T14:05:33.687Z,31.87
2022-07-28T14:08:25.128Z,30.28
2022-07-28T14:11:11.330Z,29.33
2022-07-28T14:14:00.505Z,28.53
2022-07-28T14:16:48.443Z,27.80
2022-07-28T14:19:38.192Z,27.24
2022-07-28T14:22:25.321Z,27.22
2022-07-28T14:25:19.720Z,27.94
2022-07-28T14:28:04.539Z,28.69
2022-07-28T14:30:51.926Z,29.28
2022-07-28T14:33:45.623Z,29.89
2022-07-28T14:36:28.818Z,30.22
2022-07-28T14:39:15.971Z,30.07
2022-07-28T14:42:04.305Z,29.60
2022-07-28T14:44:51.992Z,28.98
2022-07-28T14:47:44.386Z,28.37
2022-07-28T14:50:28.609Z,28.56
2022-07-28T14:53:17.417Z,28.85
2022-07-28T14:56:05.267Z,28.47
2022-07-28T14:58:52.441Z,28.73
2022-07-28T15:01:40.316Z,30.18
2022-07-28T15:04:27.488Z,32.15
2022-07-28T15:07:15.601Z,32.66
2022-07-28T15:10:03.115Z,33.38
2022-07-28T15:12:50.880Z,32.92
2022-07-28T15:15:42.860Z,33.54
2022-07-28T15:18:27.240Z,33.23
2022-07-28T15:21:18.336Z,33.78
2022-07-28T15:24:06.611Z,35.03
2022-07-28T15:26:54.290Z,36.06
2022-07-28T15:29:43.455Z,36.79
2022-07-28T15:32:32.282Z,36.70
2022-07-28T15:35:19.876Z,35.95
2022-07-28T15:38:07.409Z,35.69
2022-07-28T15:40:55.172Z,35.06
2022-07-28T15:43:42.483Z,34.93
2022-07-28T15:46:30.194Z,35.47
2022-07-28T15:49:17.651Z,35.60
2022-07-28T15:52:05.488Z,36.11
2022-07-28T15:54:53.168Z,36.22
2022-07-28T15:57:40.600Z,35.76
2022-07-28T16:00:28.193Z,35.94
2022-07-28T16:03:15.958Z,35.39
2022-07-28T16:06:03.825Z,35.43
2022-07-28T16:08:51.577Z,35.60
2022-07-28T16:11:40.473Z,35.97
2022-07-28T16:14:28.314Z,36.10
2022-07-28T16:17:16.537Z,36.14
2022-07-28T16:20:03.720Z,35.93
2022-07-28T16:22:52.451Z,35.71
2022-07-28T16:25:44.962Z,35.41
2022-07-28T16:28:29.813Z,33.83
2022-07-28T16:31:17.875Z,31.94
2022-07-28T16:34:05.648Z,30.42
2022-07-28T16:36:54.056Z,29.27
2022-07-28T16:39:43.436Z,28.40
2022-07-28T16:42:31.937Z,27.66
2022-07-28T16:45:19.642Z,27.06
2022-07-28T16:48:07.186Z,26.49
2022-07-28T16:50:54.993Z,25.99
2022-07-28T16:53:42.377Z,25.72
2022-07-28T16:56:29.873Z,25.59
2022-07-28T16:59:17.379Z,25.34
2022-07-28T17:02:04.826Z,25.02
2022-07-28T17:04:52.322Z,24.83
2022-07-28T17:07:45.619Z,24.66
2022-07-28T17:10:30.794Z,24.49
2022-07-28T17:13:19.704Z,24.34
2022-07-28T17:16:07.477Z,24.27
2022-07-28T17:18:54.809Z,24.15
2022-07-28T17:21:42.178Z,24.04
2022-07-28T17:24:29.786Z,23.93
2022-07-28T17:27:37.912Z,23.81
2022-07-28T17:30:07.609Z,23.67
2022-07-28T17:32:54.850Z,23.55
2022-07-28T17:35:42.658Z,23.46
2022-07-28T17:38:33.292Z,23.37
2022-07-28T17:41:18.985Z,23.23
2022-07-28T17:44:07.144Z,23.10
2022-07-28T17:46:55.068Z,22.93
2022-07-28T17:49:45.699Z,22.81
2022-07-28T17:52:33.160Z,22.70
2022-07-28T17:55:40.793Z,22.60
2022-07-28T17:58:28.369Z,22.49
2022-07-28T18:01:16.619Z,22.37
2022-07-28T18:04:06.091Z,22.23
2022-07-28T18:06:53.504Z,22.08
2022-07-28T18:09:41.913Z,21.90
2022-07-28T18:12:29.720Z,21.74
2022-07-28T18:15:17.416Z,21.55
2022-07-28T18:18:05.388Z,21.35
2022-07-28T18:20:53.098Z,21.22
2022-07-28T18:23:40.853Z,21.11
2022-07-28T18:26:28.696Z,21.03
2022-07-28T18:29:16.016Z,20.90
2022-07-28T18:32:03.842Z,20.74
2022-07-28T18:34:52.066Z,20.58
2022-07-28T18:37:45.463Z,20.47
2022-07-28T18:40:31.649Z,20.37
2022-07-28T18:43:19.200Z,20.24
2022-07-28T18:46:07.236Z,20.11
2022-07-28T18:48:57.013Z,20.00
2022-07-28T18:51:45.493Z,19.85
2022-07-28T18:54:32.794Z,19.74
2022-07-28T18:57:20.314Z,19.60
2022-07-28T19:00:09.969Z,19.48
2022-07-28T19:02:57.518Z,19.36
2022-07-28T19:05:46.312Z,19.27
2022-07-28T19:08:34.156Z,19.16
2022-07-28T19:11:22.786Z,19.04
2022-07-28T19:14:10.388Z,18.92
2022-07-28T19:16:58.145Z,18.77
2022-07-28T19:19:45.541Z,18.69
2022-07-28T19:22:32.978Z,18.54
2022-07-28T19:25:20.992Z,18.40
2022-07-28T19:28:12.370Z,18.28
2022-07-28T19:31:10.644Z,18.16
2022-07-28T19:33:52.403Z,17.96
2022-07-28T19:36:41.986Z,17.84
2022-07-28T19:39:31.787Z,17.70
2022-07-28T19:42:19.587Z,17.54
2022-07-28T19:45:09.745Z,17.43
2022-07-28T19:47:57.729Z,17.27
2022-07-28T19:50:50.837Z,17.14
2022-07-28T19:53:37.620Z,17.00
2022-07-28T19:56:30.231Z,16.91
2022-07-28T19:59:15.572Z,16.87
2022-07-28T20:02:03.318Z,16.79
2022-07-28T20:04:52.664Z,16.73
2022-07-28T20:07:40.481Z,16.70
2022-07-28T20:10:28.104Z,16.73
2022-07-28T20:13:15.656Z,16.83
2022-07-28T20:16:03.667Z,16.77
2022-07-28T20:18:52.154Z,16.62
2022-07-28T20:21:39.873Z,16.43
2022-07-28T20:24:27.273Z,16.28
2022-07-28T20:27:15.069Z,16.14
2022-07-28T20:30:02.558Z,15.98
2022-07-28T20:32:50.088Z,15.94
2022-07-28T20:35:37.720Z,15.97
2022-07-28T20:38:31.131Z,15.96
2022-07-28T20:41:18.655Z,15.92
2022-07-28T20:44:27.802Z,15.89
2022-07-28T20:47:02.509Z,15.87
2022-07-28T20:49:50.092Z,15.84
2022-07-28T20:52:37.962Z,15.79
2022-07-28T20:55:27.522Z,15.62
2022-07-28T20:58:15.537Z,15.40
2022-07-28T21:01:03.356Z,15.31
2022-07-28T21:03:51.968Z,15.31
2022-07-28T21:06:39.084Z,15.31
2022-07-28T21:09:28.466Z,15.32
2022-07-28T21:12:15.937Z,15.28
2022-07-28T21:15:04.291Z,15.22
2022-07-28T21:17:53.631Z,15.22
2022-07-28T21:20:42.456Z,15.25
2022-07-28T21:23:29.722Z,15.29
2022-07-28T21:26:17.897Z,15.34
2022-07-28T21:29:12.377Z,15.44
2022-07-28T21:32:05.151Z,15.49
2022-07-28T21:34:49.544Z,15.57
2022-07-28T21:37:36.869Z,15.61
2022-07-28T21:40:24.279Z,15.60
2022-07-28T21:43:11.929Z,15.51
2022-07-28T21:45:59.475Z,15.36
2022-07-28T21:48:47.553Z,15.26
2022-07-28T21:51:34.659Z,15.17
2022-07-28T21:54:22.153Z,15.11
2022-07-28T21:57:24.652Z,15.08
2022-07-28T21:59:59.200Z,15.07
2022-07-28T22:02:46.768Z,15.07
2022-07-28T22:05:34.248Z,15.14
2022-07-28T22:08:23.080Z,15.20
2022-07-28T22:11:10.401Z,15.23
2022-07-28T22:13:57.841Z,15.26
2022-07-28T22:16:45.313Z,15.31
2022-07-28T22:19:33.512Z,15.31
2022-07-28T22:22:20.969Z,15.28
2022-07-28T22:25:08.723Z,15.24
2022-07-28T22:27:57.026Z,15.20
2022-07-28T22:30:45.254Z,15.22
2022-07-28T22:33:32.960Z,15.23
2022-07-28T22:36:20.384Z,15.23
2022-07-28T22:39:07.624Z,15.22
2022-07-28T22:41:55.075Z,15.22
2022-07-28T22:44:42.441Z,15.29
2022-07-28T22:47:30.033Z,15.34
2022-07-28T22:50:17.649Z,15.37
2022-07-28T22:53:05.105Z,15.41
2022-07-28T22:55:53.044Z,15.42
2022-07-28T22:58:40.337Z,15.45
2022-07-28T23:01:27.979Z,15.47
2022-07-28T23:04:16.336Z,15.51
2022-07-28T23:07:04.537Z,15.51
2022-07-28T23:09:56.890Z,15.50
2022-07-28T23:12:44.623Z,15.47
2022-07-28T23:15:39.493Z,15.45
2022-07-28T23:18:21.522Z,15.43
2022-07-28T23:21:08.587Z,15.44
2022-07-28T23:23:55.916Z,15.38
2022-07-28T23:26:43.298Z,15.34
2022-07-28T23:29:30.618Z,15.26
2022-07-28T23:32:18.235Z,15.17
2022-07-28T23:35:06.610Z,15.15
2022-07-28T23:37:55.491Z,15.14
2022-07-28T23:40:42.852Z,15.11
2022-07-28T23:43:30.713Z,15.12
2022-07-28T23:46:18.138Z,15.11
2022-07-28T23:49:06.108Z,15.06
2022-07-28T23:51:55.169Z,15.03
2022-07-28T23:54:43.467Z,15.00
2022-07-28T23:57:31.616Z,14.95
